• Join FlightAware (Why Join?)
  • Login
  • US Flag 
 
07:32AM EST


 

Airport Tracker/Info


-or-


 

Live Flight TrackerFlight Track Log ✈ SKW7363 ✈ 21-Oct-2013 ✈ KABR - KMSP

Flight Track Log - Related Links

Times and Time Zones

All times are in EDT time to prevent confusion due to time zone crossing. See the SKW7363 flight status page for this flight to view local times or setup timezone preferences in your user account.

Time Position Orientation Groundspeed Altitude Reporting Facility
EDT Latitude Longitude Course Direction KTS MPH feet Rate Location/Type
02:08PM 45.4978 -98.4303 98° East 243 280 3,700  Level Minneapolis Center
02:09PM 45.4492 -98.3486 130° Southeast 269 310 7,000 2,760 Climbing Minneapolis Center
02:10PM 45.4003 -98.2558 127° Southeast 286 329 9,500 2,460 Climbing Minneapolis Center
02:11PM 45.3769 -97.6115 97° East  Level Estimated
02:11PM 45.3681 -98.1406 112° Southeast 310 357 12,200  Level Minneapolis Center
02:12PM 45.3643 -97.4766 98° East  Level Estimated
02:12PM 45.3333 -98.0258 113° Southeast 321 369 14,200  Level Minneapolis Center
02:13PM 45.3516 -97.3419 98° East  Level Estimated
02:13PM 45.2956 -97.8933 112° Southeast 349 402 15,600  Level Minneapolis Center
02:14PM 45.3387 -97.2071 98° East  Level Estimated
02:14PM 45.2472 -97.7203 112° Southeast 385 443 17,700  Level Minneapolis Center
02:15PM 45.2042 -97.5733 113° Southeast 398 458 19,500 1,680 Climbing Minneapolis Center
02:16PM 45.1625 -97.4244 112° Southeast 405 466 21,200 1,500 Climbing Minneapolis Center
02:17PM 45.1186 -97.2742 112° Southeast 411 473 22,700 1,140 Climbing Minneapolis Center
02:18PM 45.0731 -97.1214 113° Southeast 418 481 23,600 900 Climbing Minneapolis Center
02:19PM 45.0267 -96.9633 113° Southeast 433 498 24,600 960 Climbing Minneapolis Center
02:20PM 44.9700 -96.7689 112° Southeast 444 511 25,700 960 Climbing Minneapolis Center
02:22PM 44.9211 -96.6047 113° Southeast 453 521 26,600 600 Climbing Minneapolis Center
02:23PM 44.8711 -96.4381 113° Southeast 459 528 27,000 180 Climbing Minneapolis Center
02:24PM 44.8211 -96.2719 113° Southeast 459 528 27,000  Level Minneapolis Center
02:25PM 44.7700 -96.1056 113° Southeast 460 529 27,000  Level Minneapolis Center
02:26PM 44.7192 -95.9408 113° Southeast 458 527 27,000  Level Minneapolis Center
02:27PM 44.6692 -95.7733 113° Southeast 461 531 27,000 -420 Level Minneapolis Center
02:28PM 44.6072 -95.5758 114° Southeast 459 528 26,200 -900 Descending Minneapolis Center
02:29PM 44.5572 -95.4128 113° Southeast 457 526 25,200 -1,020 Descending Minneapolis Center
02:30PM 44.5081 -95.2581 114° Southeast 444 511 24,200 -1,020 Descending Minneapolis Center
02:31PM 44.4761 -95.0992 106° East 432 497 23,200 -1,020 Descending Minneapolis Center
02:32PM 44.5117 -94.9461 72° East 414 476 22,200 -1,020 Descending Minneapolis Center
02:33PM 44.5478 -94.7950 71° East 411 473 21,200 -1,500 Descending Minneapolis Center
02:34PM 44.5847 -94.6328 72° East 404 465 19,100 -2,340 Descending Minneapolis Center
02:35PM 44.6197 -94.4861 71° East 399 459 16,400 -2,700 Descending Minneapolis Center
02:36PM 44.6522 -94.3414 72° East 389 448 13,600 -2,520 Descending Minneapolis Center
02:37PM 44.6842 -94.2042 72° East 371 427 11,200 -1,260 Descending Minneapolis Center
02:38PM 44.7194 -94.0428 73° East 360 414 11,100 -60 Descending Minneapolis Center
02:39PM 44.7492 -93.9097 72° East 357 411 11,100 -60 Level Minneapolis Center
02:40PM 44.7781 -93.7786 73° East 352 405 11,000 -180 Descending Minneapolis Center
02:41PM 44.8064 -93.6481 73° East 349 402 10,800 -480 Descending Minneapolis Center
02:42PM 44.8317 -93.5353 72° East 303 349 10,100 -840 Descending Minneapolis Center
02:43PM 44.8564 -93.4225 73° East 299 344 9,100 -1,020 Descending Minneapolis Center
02:44PM 44.8281 -93.3069 109° East 302 348 8,000 -960 Descending Minneapolis Center
02:45PM 44.7561 -93.2967 174° South 268 308 7,200 -840 Descending Minneapolis Center
02:46PM 44.6914 -93.2903 176° South 246 283 6,300 -720 Descending Minneapolis Center
02:47PM 44.6794 -93.2214 104° East 231 266 5,800 -1,020 Descending Minneapolis Center
02:48PM 44.7419 -93.2050 11° North 199 229 4,300 -1,440 Descending Minneapolis Center
02:49PM 44.7803 -93.2144 350° North 155 178 2,900 -1,200 Descending Minneapolis Center
02:50PM 44.8161 -93.2236 350° North 135 155 1,900 -960 Descending Minneapolis Center
02:52PM 44.8586 -93.2347 350° North 131 151 1,000 -900 Descending Minneapolis Center